TimeEST,TemperatureF,Dew PointF,Humidity,Sea Level PressureIn,VisibilityMPH,Wind Direction,Wind SpeedMPH,Gust SpeedMPH,PrecipitationIn,Events,Conditions,WindDirDegrees,DateUTC
12:56 AM,28.9,7.0,40,30.61,10.0,North,4.6,-,N/A,,Overcast,10,2012-12-01 05:56:00
1:56 AM,28.4,8.6,43,30.57,10.0,North,4.6,-,N/A,,Overcast,360,2012-12-01 06:56:00
2:56 AM,28.0,10.9,49,30.61,10.0,NNE,5.8,-,N/A,,Overcast,20,2012-12-01 07:56:00
3:56 AM,28.0,12.9,53,30.60,10.0,NNE,5.8,-,N/A,,Overcast,20,2012-12-01 08:56:00
4:56 AM,27.0,10.0,49,30.60,10.0,North,4.6,-,N/A,,Overcast,10,2012-12-01 09:56:00
5:56 AM,28.0,10.0,47,30.63,10.0,NNE,6.9,-,N/A,,Overcast,20,2012-12-01 10:56:00
6:56 AM,26.6,12.2,55,30.60,10.0,North,4.6,-,N/A,,Overcast,350,2012-12-01 11:56:00
7:56 AM,27.0,15.1,61,30.66,6.0,NNW,5.8,-,0.00,Snow,Light Snow,340,2012-12-01 12:56:00
8:28 AM,26.6,17.6,69,30.61,3.0,NNE,3.5,-,0.00,Snow,Light Snow,30,2012-12-01 13:28:00
8:52 AM,26.6,19.4,74,30.62,1.2,North,3.5,-,0.00,Snow,Light Snow,360,2012-12-01 13:52:00
8:56 AM,26.6,19.4,74,30.62,1.0,NNW,4.6,-,N/A,Snow,Light Snow,340,2012-12-01 13:56:00
9:56 AM,27.0,21.0,78,30.69,6.0,North,6.9,-,0.00,Snow,Light Snow,350,2012-12-01 14:56:00
10:22 AM,26.6,21.2,80,30.61,1.5,NNE,4.6,-,0.00,Snow,Light Snow,30,2012-12-01 15:22:00
10:56 AM,26.6,23.0,86,30.60,1.0,North,4.6,-,N/A,Snow,Light Snow,10,2012-12-01 15:56:00
11:53 AM,26.6,23.0,86,30.58,2.0,North,4.6,-,0.00,Snow,Light Snow,350,2012-12-01 16:53:00
11:56 AM,27.0,23.0,85,30.63,2.0,North,5.8,-,0.00,Snow,Light Snow,360,2012-12-01 16:56:00
12:03 PM,26.6,23.0,86,30.58,2.0,North,5.8,-,0.00,Snow,Light Snow,360,2012-12-01 17:03:00
12:18 PM,28.4,23.0,80,30.57,2.0,NNW,4.6,-,0.00,Snow,Light Snow,330,2012-12-01 17:18:00
12:56 PM,28.0,23.0,81,30.61,6.0,North,5.8,-,0.00,Snow,Light Snow,10,2012-12-01 17:56:00
1:56 PM,28.0,24.1,85,30.61,6.0,North,5.8,-,0.01,Snow,Light Snow,360,2012-12-01 18:56:00
2:56 PM,28.0,24.1,85,30.61,4.0,North,6.9,-,0.00,Snow,Light Snow,360,2012-12-01 19:56:00
3:56 PM,28.0,24.1,85,30.61,10.0,North,5.8,-,0.00,,Overcast,360,2012-12-01 20:56:00
4:56 PM,28.0,25.0,88,30.62,6.0,North,4.6,-,0.00,,Overcast,360,2012-12-01 21:56:00
5:19 PM,28.4,26.6,93,30.57,5.0,Calm,Calm,-,N/A,,Overcast,0,2012-12-01 22:19:00
5:56 PM,28.0,26.1,92,30.62,5.0,North,3.5,-,N/A,,Overcast,350,2012-12-01 22:56:00
6:56 PM,28.0,26.1,92,30.60,9.0,NE,4.6,-,0.00,,Overcast,40,2012-12-01 23:56:00
7:56 PM,28.0,26.1,92,30.59,8.0,NNW,3.5,-,N/A,,Overcast,340,2012-12-02 00:56:00
8:56 PM,28.0,25.0,88,30.60,9.0,NNW,4.6,-,N/A,,Overcast,330,2012-12-02 01:56:00
9:56 PM,28.0,25.0,88,30.58,8.0,Calm,Calm,-,N/A,,Overcast,0,2012-12-02 02:56:00
10:56 PM,28.0,26.1,92,30.57,8.0,North,3.5,-,N/A,,Overcast,350,2012-12-02 03:56:00
11:56 PM,28.9,26.1,89,30.55,7.0,Calm,Calm,-,N/A,,Overcast,0,2012-12-02 04:56:00